Faisalabad, Pakistan
Current Conditions -  °F | °C
As of 9:39 AM on Thursday 27 Nov 2014 (Local Time) from OPLA Reporting Station
Smoke Smoke  
Wind Chill: 59°   Ceiling: 10000
Heat Index: 59°   Visibility: 0.93mi
Dew Point: 50°   Wind: 5mph
Humidity: 72%   Direction: 130°SE
Pressure: 29.94"   Gusts: NA
Location:  31.41°N, 73.11°E
Report Text: OPLA 270439Z 13004KT 1500 FU BKN100 15/10 Q1014
Loading
Personal Weather Stations






























Interactive Weather Map New forecast layout! Learn more

10-Day Weather Forecast

Advertisements
Track Severe Weather on mobile